Time;durP1;ratioP1;P1;durP2;ratioP2;P2;SDS_P1;SDS_P2;PMS_P1;PMS_P2;Temp;Humidity;BMP_temperature;BMP_pressure;BME280_temperature;BME280_humidity;BME280_pressure;Samples;Min_cycle;Max_cycle;Signal;HPM_P1;HPM_P2
2022/06/05 00:00:07;;;;;;;15.65;12.38;;;20.30;99.90;;;;;;5094150;28;20072;-72
2022/06/05 00:02:59;;;;;;;16.45;12.40;;;20.40;99.90;;;;;;5094295;28;20036;-72
2022/06/05 00:05:34;;;;;;;16.63;12.10;;;20.60;99.90;;;;;;5092885;28;20036;-72
2022/06/05 00:08:09;;;;;;;14.80;11.52;;;20.40;99.90;;;;;;5092766;28;20037;-72
2022/06/05 00:10:46;;;;;;;17.25;11.88;;;20.10;99.90;;;;;;5093553;28;20067;-72
2022/06/05 00:13:25;;;;;;;13.23;10.85;;;20.10;99.90;;;;;;5094119;28;20107;-72
2022/06/05 00:15:52;;;;;;;15.52;11.60;;;20.00;99.90;;;;;;5094005;28;20474;-73
2022/06/05 00:18:18;;;;;;;16.58;11.20;;;20.00;99.90;;;;;;5093943;28;20024;-72
2022/06/05 00:20:45;;;;;;;19.25;11.93;;;20.10;99.90;;;;;;5093792;28;20438;-72
2022/06/05 00:23:11;;;;;;;18.67;12.45;;;20.10;99.90;;;;;;5092729;28;20427;-72
2022/06/05 00:25:47;;;;;;;21.15;13.98;;;20.10;99.90;;;;;;5093326;28;20376;-71
2022/06/05 00:28:17;;;;;;;26.40;14.00;;;20.10;99.90;;;;;;5093771;28;20036;-72
2022/06/05 00:30:50;;;;;;;17.55;12.98;;;20.10;99.90;;;;;;5093402;28;20047;-72
2022/06/05 00:33:42;;;;;;;14.88;12.15;;;20.10;99.90;;;;;;5093687;28;20035;-72
2022/06/05 00:36:28;;;;;;;;;;;19.90;99.90;;;;;;5092806;28;20036;-72
2022/06/05 00:39:03;;;;;;;12.90;10.82;;;20.10;99.90;;;;;;5072135;28;20049;-72
2022/06/05 00:41:34;;;;;;;29.67;12.45;;;19.70;99.90;;;;;;5079189;28;20039;-72
2022/06/05 00:44:04;;;;;;;15.35;11.57;;;19.80;99.90;;;;;;5093490;28;20099;-71
2022/06/05 00:46:32;;;;;;;14.52;11.07;;;19.90;99.90;;;;;;5093493;28;20028;-71
2022/06/05 00:48:59;;;;;;;12.23;9.98;;;20.10;99.90;;;;;;5088658;28;20033;-72
2022/06/05 00:51:25;;;;;;;11.63;10.40;;;20.20;99.90;;;;;;5091957;28;20020;-72
2022/06/05 00:53:51;;;;;;;12.25;10.30;;;20.40;99.90;;;;;;5085911;28;20035;-72
2022/06/05 00:56:17;;;;;;;13.45;10.95;;;20.20;99.90;;;;;;5085979;28;20032;-71
2022/06/05 00:58:44;;;;;;;14.13;10.82;;;19.90;99.90;;;;;;5093041;28;20027;-71
2022/06/05 01:01:10;;;;;;;17.27;13.07;;;19.80;99.90;;;;;;5093165;28;20028;-72
2022/06/05 01:03:36;;;;;;;15.65;12.77;;;19.90;99.90;;;;;;5092778;28;20034;-72
2022/06/05 01:06:03;;;;;;;15.68;13.07;;;19.80;99.90;;;;;;5093270;28;20024;-71
2022/06/05 01:08:28;;;;;;;14.85;13.18;;;20.10;99.90;;;;;;5092393;28;20381;-72
2022/06/05 01:11:03;;;;;;;17.45;13.45;;;20.20;99.90;;;;;;5093013;28;20020;-72
2022/06/05 01:13:35;;;;;;;17.88;13.52;;;20.20;99.90;;;;;;5091745;28;20092;-71
2022/06/05 01:16:15;;;;;;;19.45;14.88;;;20.20;99.90;;;;;;5092167;28;20020;-71
2022/06/05 01:18:45;;;;;;;17.63;12.43;;;20.10;99.90;;;;;;5092884;28;20032;-72
2022/06/05 01:21:38;;;;;;;18.48;12.88;;;19.90;99.90;;;;;;5091442;28;20028;-72
2022/06/05 01:24:33;;;;;;;12.38;11.13;;;19.80;99.90;;;;;;5091286;28;20472;-71
2022/06/05 01:27:04;;;;;;;14.57;11.30;;;19.80;99.90;;;;;;5092804;28;20362;-72
2022/06/05 01:29:29;;;;;;;20.13;11.75;;;19.70;99.90;;;;;;5092537;28;20043;-71
2022/06/05 01:32:27;;;;;;;12.68;11.38;;;19.50;99.90;;;;;;5092664;28;20450;-72
2022/06/05 01:34:59;;;;;;;16.73;11.73;;;19.60;99.90;;;;;;5092652;28;20038;-72
2022/06/05 01:37:41;;;;;;;18.05;12.30;;;19.30;99.90;;;;;;5091128;28;20028;-71
2022/06/05 01:40:27;;;;;;;;;;;19.30;99.90;;;;;;5093186;28;20583;-71
2022/06/05 01:43:01;;;;;;;12.68;11.35;;;19.30;99.90;;;;;;5092369;28;19912;-71
2022/06/05 01:46:01;;;;;;;13.27;11.88;;;19.20;99.90;;;;;;5092676;28;20059;-72
2022/06/05 01:48:41;;;;;;;14.52;11.98;;;19.20;99.90;;;;;;5092515;28;20040;-71
2022/06/05 01:51:17;;;;;;;14.52;12.50;;;19.10;99.90;;;;;;5088575;28;20032;-72
2022/06/05 01:53:46;;;;;;;14.77;12.95;;;19.30;99.90;;;;;;5085314;28;20071;-71
2022/06/05 01:56:20;;;;;;;14.32;12.35;;;19.30;99.90;;;;;;5084961;28;20035;-71
2022/06/05 01:58:52;;;;;;;16.05;11.88;;;19.10;99.90;;;;;;5092382;28;20020;-71
2022/06/05 02:01:25;;;;;;;15.00;12.43;;;19.00;99.90;;;;;;5091169;28;20040;-71
2022/06/05 02:04:01;;;;;;;16.20;13.15;;;19.00;99.90;;;;;;5091976;28;20039;-71
2022/06/05 02:06:33;;;;;;;18.48;13.48;;;19.10;99.90;;;;;;5092274;28;20036;-71
2022/06/05 02:09:11;;;;;;;19.42;14.55;;;19.00;99.90;;;;;;5092189;28;20127;-71
2022/06/05 02:11:37;;;;;;;16.20;14.50;;;18.90;99.90;;;;;;5092391;28;20020;-71
2022/06/05 02:14:07;;;;;;;17.73;13.70;;;18.70;99.90;;;;;;5090906;28;20031;-71
2022/06/05 02:16:36;;;;;;;17.25;13.75;;;18.60;99.90;;;;;;5092564;28;20440;-71
2022/06/05 02:19:09;;;;;;;23.25;13.48;;;18.50;99.90;;;;;;5074367;28;20039;-71
2022/06/05 02:21:37;;;;;;;24.50;13.40;;;18.70;99.90;;;;;;5082235;28;20481;-71
2022/06/05 02:24:08;;;;;;;20.08;13.57;;;18.60;99.90;;;;;;5070630;28;20077;-71
2022/06/05 02:26:34;;;;;;;16.73;13.13;;;18.80;99.90;;;;;;5074791;28;20040;-71
2022/06/05 02:29:13;;;;;;;20.83;13.73;;;18.90;99.90;;;;;;5095444;28;20024;-71
2022/06/05 02:31:41;;;;;;;19.25;13.80;;;19.00;99.90;;;;;;5096184;28;20031;-72
2022/06/05 02:34:21;;;;;;;22.10;14.63;;;19.10;99.90;;;;;;5094616;28;20107;-71
2022/06/05 02:37:10;;;;;;;17.60;14.80;;;18.90;99.90;;;;;;5095695;28;20040;-71
2022/06/05 02:40:04;;;;;;;21.83;15.60;;;18.90;99.90;;;;;;5081210;28;20032;-71
2022/06/05 02:42:34;;;;;;;18.95;14.93;;;18.90;99.90;;;;;;5094525;28;20418;-71
2022/06/05 02:45:39;;;;;;;20.45;15.48;;;18.90;99.90;;;;;;5095525;28;20058;-71
2022/06/05 02:48:22;;;;;;;21.50;14.65;;;18.80;99.90;;;;;;5091194;28;20044;-71
2022/06/05 02:50:54;;;;;;;22.90;14.40;;;18.50;99.90;;;;;;5087490;28;20040;-71
2022/06/05 02:53:20;;;;;;;24.83;13.32;;;18.50;99.90;;;;;;5095220;28;20110;-71
2022/06/05 02:55:46;;;;;;;16.98;14.25;;;18.50;99.90;;;;;;5086555;28;20103;-71
2022/06/05 02:58:13;;;;;;;29.67;14.73;;;18.60;99.90;;;;;;5090234;28;20052;-71
2022/06/05 03:00:39;;;;;;;25.33;15.52;;;18.40;99.90;;;;;;5095574;28;20029;-71
2022/06/05 03:05:51;;;;;;;25.50;15.10;;;18.50;99.90;;;;;;5083066;28;20032;-71
2022/06/05 03:08:18;;;;;;;19.20;13.98;;;18.60;99.90;;;;;;5095243;28;20526;-72
2022/06/05 03:10:46;;;;;;;24.73;14.02;;;18.60;99.90;;;;;;5095224;28;20085;-71
2022/06/05 03:13:12;;;;;;;20.10;14.73;;;18.70;99.90;;;;;;5095377;28;20020;-71
2022/06/05 03:15:38;;;;;;;23.50;13.75;;;18.50;99.90;;;;;;5095071;28;20027;-71
2022/06/05 03:18:05;;;;;;;24.00;14.40;;;18.70;99.90;;;;;;5094601;28;20392;-71
2022/06/05 03:20:33;;;;;;;23.80;15.05;;;18.80;99.90;;;;;;5094860;28;20028;-72
2022/06/05 03:23:00;;;;;;;22.45;15.60;;;18.90;99.90;;;;;;5095141;28;20031;-71
2022/06/05 03:25:26;;;;;;;16.50;13.48;;;19.00;99.90;;;;;;5094836;28;20021;-71
2022/06/05 03:27:54;;;;;;;17.00;13.07;;;18.80;99.90;;;;;;5095140;28;20024;-71
2022/06/05 03:30:21;;;;;;;17.13;12.88;;;18.80;99.90;;;;;;5081970;28;20033;-71
2022/06/05 03:32:47;;;;;;;24.13;13.73;;;19.00;99.90;;;;;;5091903;28;20396;-71
2022/06/05 03:35:15;;;;;;;15.85;13.15;;;19.10;99.90;;;;;;5094511;28;20035;-71
2022/06/05 03:37:40;;;;;;;19.38;11.60;;;19.10;99.90;;;;;;5094589;28;20030;-71
2022/06/05 03:40:15;;;;;;;19.85;13.20;;;19.00;99.90;;;;;;5093854;28;20413;-71
2022/06/05 03:42:41;;;;;;;14.98;12.48;;;19.00;99.90;;;;;;5094597;28;20028;-71
2022/06/05 03:45:15;;;;;;;19.60;12.07;;;18.90;99.90;;;;;;5094454;28;20031;-71
2022/06/05 03:47:41;;;;;;;17.13;12.40;;;18.80;99.90;;;;;;5094207;28;20032;-71
2022/06/05 03:50:08;;;;;;;14.35;11.88;;;18.70;99.90;;;;;;5088723;28;20058;-71
2022/06/05 03:52:33;;;;;;;16.23;12.63;;;18.80;99.90;;;;;;5093322;28;20036;-71
2022/06/05 03:54:59;;;;;;;16.35;12.15;;;19.00;99.90;;;;;;5094248;28;20027;-71
2022/06/05 03:57:25;;;;;;;16.17;12.73;;;19.00;99.90;;;;;;5094306;28;20032;-71
2022/06/05 03:59:51;;;;;;;16.27;12.15;;;19.00;99.90;;;;;;5093989;28;20024;-71
2022/06/05 04:02:16;;;;;;;17.15;12.85;;;19.20;99.90;;;;;;5094088;28;20411;-71
2022/06/05 04:04:42;;;;;;;23.05;13.13;;;19.10;99.90;;;;;;5093784;28;20032;-71
2022/06/05 04:07:08;;;;;;;17.30;12.48;;;19.00;99.90;;;;;;5094208;28;20031;-72
2022/06/05 04:09:34;;;;;;;18.33;12.25;;;19.00;99.90;;;;;;5092738;28;20070;-71
2022/06/05 04:11:59;;;;;;;14.85;12.40;;;19.00;99.90;;;;;;5093903;28;20103;-71
2022/06/05 04:14:25;;;;;;;17.00;12.55;;;19.10;99.90;;;;;;5093856;28;20119;-71
2022/06/05 04:16:51;;;;;;;17.48;12.50;;;19.20;99.90;;;;;;5093563;28;20016;-71
2022/06/05 04:19:17;;;;;;;14.88;12.18;;;19.10;99.90;;;;;;5093897;28;20449;-71
2022/06/05 04:21:44;;;;;;;19.83;12.75;;;19.00;99.90;;;;;;5093841;28;20028;-72
2022/06/05 04:24:13;;;;;;;18.15;12.73;;;19.10;99.90;;;;;;5094245;28;20073;-72
2022/06/05 04:26:40;;;;;;;20.08;12.70;;;19.30;99.90;;;;;;5093746;28;20073;-71
2022/06/05 04:29:07;;;;;;;20.55;12.50;;;19.20;99.90;;;;;;5091003;28;20036;-73
2022/06/05 04:31:36;;;;;;;16.52;12.07;;;18.80;99.90;;;;;;5081742;28;20125;-72
2022/06/05 04:34:08;;;;;;;18.85;14.45;;;18.70;99.90;;;;;;5093680;28;20411;-72
2022/06/05 04:36:34;;;;;;;15.98;12.25;;;18.90;99.90;;;;;;5093847;28;20488;-72
2022/06/05 04:39:00;;;;;;;16.67;12.40;;;19.00;99.90;;;;;;5093758;28;20028;-73
2022/06/05 04:41:26;;;;;;;23.80;13.00;;;18.90;99.90;;;;;;5093178;28;20024;-72
2022/06/05 04:43:53;;;;;;;19.20;13.52;;;18.80;99.90;;;;;;5093590;28;20028;-72
2022/06/05 04:46:21;;;;;;;17.88;12.38;;;18.70;99.90;;;;;;5093010;28;20486;-72
2022/06/05 04:48:48;;;;;;;17.23;13.25;;;18.60;99.90;;;;;;5091666;28;20067;-72
2022/06/05 04:51:14;;;;;;;18.52;13.85;;;18.70;99.90;;;;;;5088532;28;20035;-72
2022/06/05 04:53:41;;;;;;;17.00;13.10;;;18.80;99.90;;;;;;5093359;28;20073;-73
2022/06/05 04:56:10;;;;;;;20.42;13.75;;;18.80;99.90;;;;;;5091756;28;20434;-72
2022/06/05 04:58:36;;;;;;;14.18;12.70;;;18.70;99.90;;;;;;5093270;28;20024;-73
2022/06/05 05:01:14;;;;;;;19.63;12.98;;;18.60;99.90;;;;;;5092798;28;20039;-73
2022/06/05 05:03:40;;;;;;;18.92;13.98;;;18.70;99.90;;;;;;5093067;28;20042;-73
2022/06/05 05:06:06;;;;;;;16.40;12.93;;;18.90;99.90;;;;;;5092985;28;20504;-73
2022/06/05 05:08:32;;;;;;;21.75;13.48;;;19.10;99.90;;;;;;5091496;28;20019;-73
2022/06/05 05:10:58;;;;;;;17.25;13.18;;;19.20;99.90;;;;;;5092899;28;20032;-73
2022/06/05 05:13:24;;;;;;;16.63;13.40;;;19.50;99.90;;;;;;5092776;28;20043;-71
2022/06/05 05:15:52;;;;;;;17.02;12.93;;;19.40;99.90;;;;;;5092855;28;20032;-73
2022/06/05 05:18:18;;;;;;;13.70;12.30;;;19.20;99.90;;;;;;5091568;28;20020;-73
2022/06/05 05:20:44;;;;;;;18.10;13.05;;;19.30;99.90;;;;;;5093054;28;20103;-73
2022/06/05 05:23:10;;;;;;;18.27;12.43;;;19.30;99.90;;;;;;5092592;28;20490;-72
2022/06/05 05:25:35;;;;;;;17.80;12.23;;;18.80;99.90;;;;;;5092841;28;20034;-73
2022/06/05 05:28:01;;;;;;;16.45;11.60;;;18.60;99.90;;;;;;5092720;28;20028;-73
2022/06/05 05:30:27;;;;;;;13.68;12.10;;;18.60;99.90;;;;;;5077313;28;20033;-73
2022/06/05 05:32:53;;;;;;;15.55;12.30;;;19.00;99.90;;;;;;5090852;28;20392;-73
2022/06/05 05:35:22;;;;;;;19.10;12.75;;;19.10;99.90;;;;;;5092734;28;20047;-73
2022/06/05 05:37:47;;;;;;;18.00;12.30;;;18.90;99.90;;;;;;5088158;28;20039;-73
2022/06/05 05:42:58;;;;;;;13.95;12.00;;;19.00;99.90;;;;;;5079356;28;20021;-73
2022/06/05 05:45:24;;;;;;;16.88;12.00;;;19.10;99.90;;;;;;5079894;28;20027;-73
2022/06/05 05:47:49;;;;;;;17.70;11.95;;;19.30;99.90;;;;;;5085966;28;20028;-73
2022/06/05 05:50:15;;;;;;;15.02;12.25;;;19.20;99.90;;;;;;5077882;28;20061;-73
2022/06/05 05:52:45;;;;;;;17.42;12.07;;;18.70;99.90;;;;;;5081173;28;20123;-73
2022/06/05 05:55:19;;;;;;;18.45;12.13;;;19.00;99.90;;;;;;5077802;28;20037;-73
2022/06/05 05:57:47;;;;;;;16.63;11.30;;;19.00;99.90;;;;;;5080176;28;20555;-73
2022/06/05 06:00:15;;;;;;;17.20;11.90;;;19.10;99.90;;;;;;5058922;28;20078;-73
2022/06/05 06:02:42;;;;;;;14.95;12.15;;;19.30;99.90;;;;;;5073455;28;20064;-73
2022/06/05 06:05:09;;;;;;;16.27;11.25;;;19.40;99.90;;;;;;5090269;28;20032;-73
2022/06/05 06:07:34;;;;;;;22.58;12.23;;;19.40;99.90;;;;;;5102707;28;20016;-73
2022/06/05 06:10:00;;;;;;;14.63;11.40;;;19.30;99.90;;;;;;5090314;28;20039;-72
2022/06/05 06:12:26;;;;;;;15.50;10.63;;;19.00;99.90;;;;;;5077454;28;20024;-73
2022/06/05 06:14:52;;;;;;;17.13;11.05;;;19.10;99.90;;;;;;5077989;28;20373;-73
2022/06/05 06:17:19;;;;;;;15.85;10.65;;;19.10;99.90;;;;;;5101849;28;20036;-72
2022/06/05 06:19:45;;;;;;;16.05;11.70;;;18.90;99.90;;;;;;5099303;28;20020;-73
2022/06/05 06:22:11;;;;;;;14.80;11.20;;;18.80;99.90;;;;;;5082965;28;20024;-73
2022/06/05 06:24:36;;;;;;;13.95;11.15;;;18.90;99.90;;;;;;5077889;28;20028;-73
2022/06/05 06:27:02;;;;;;;18.05;10.25;;;19.10;99.90;;;;;;5077584;28;20022;-73
2022/06/05 06:29:29;;;;;;;15.65;11.52;;;19.10;99.90;;;;;;5081600;28;20122;-73
2022/06/05 06:31:54;;;;;;;12.82;11.43;;;19.30;99.90;;;;;;5093265;28;20044;-73
2022/06/05 06:34:20;;;;;;;15.05;10.68;;;19.00;99.90;;;;;;5076759;28;20047;-73
2022/06/05 06:36:46;;;;;;;13.45;10.93;;;19.30;99.90;;;;;;5088634;28;20035;-73
2022/06/05 06:39:12;;;;;;;14.93;11.07;;;19.20;99.90;;;;;;5083450;28;20469;-73
2022/06/05 06:41:37;;;;;;;15.57;10.93;;;19.40;99.90;;;;;;5098405;28;20027;-73
2022/06/05 06:44:04;;;;;;;15.90;10.55;;;19.60;99.90;;;;;;5083345;28;20020;-73
2022/06/05 06:46:31;;;;;;;15.48;11.10;;;19.80;99.90;;;;;;5076138;28;20063;-73
2022/06/05 06:48:56;;;;;;;14.57;11.30;;;19.70;99.90;;;;;;5083845;28;20503;-73
2022/06/05 06:51:23;;;;;;;17.45;11.43;;;19.90;99.90;;;;;;5073480;28;20012;-73
2022/06/05 06:53:48;;;;;;;14.00;10.93;;;20.20;99.90;;;;;;5061314;28;20039;-73
2022/06/05 06:56:21;;;;;;;14.25;11.63;;;20.30;99.90;;;;;;5077999;28;20021;-73
2022/06/05 06:58:47;;;;;;;14.55;11.27;;;19.60;99.90;;;;;;5073909;28;20040;-73
2022/06/05 07:01:14;;;;;;;17.25;10.82;;;19.50;99.90;;;;;;5074235;28;20032;-71
2022/06/05 07:03:40;;;;;;;20.30;11.90;;;19.90;99.90;;;;;;5073904;28;20520;-73
2022/06/05 07:06:09;;;;;;;15.00;11.00;;;20.10;99.90;;;;;;5073717;28;20025;-72
2022/06/05 07:08:36;;;;;;;14.95;10.27;;;20.30;99.90;;;;;;5076174;28;20496;-73
2022/06/05 07:11:05;;;;;;;16.25;10.75;;;20.60;99.90;;;;;;5074754;28;20051;-73
2022/06/05 07:13:32;;;;;;;12.68;10.15;;;20.80;99.90;;;;;;5078306;28;20392;-73
2022/06/05 07:15:58;;;;;;;17.75;11.40;;;20.40;99.90;;;;;;5078391;28;20017;-73
2022/06/05 07:18:23;;;;;;;16.05;12.00;;;20.70;99.90;;;;;;5078485;28;20025;-73
2022/06/05 07:20:50;;;;;;;13.15;11.30;;;20.10;99.90;;;;;;5077289;28;20026;-73
2022/06/05 07:23:15;;;;;;;11.98;10.75;;;20.30;99.90;;;;;;5080199;28;20024;-73
2022/06/05 07:25:50;;;;;;;13.57;11.30;;;20.60;99.90;;;;;;5078032;28;20664;-73
2022/06/05 07:28:17;;;;;;;18.58;11.82;;;20.30;99.90;;;;;;5083008;28;20032;-73
2022/06/05 07:30:47;;;;;;;14.73;10.63;;;20.50;99.90;;;;;;5077352;28;20044;-73
2022/06/05 07:33:13;;;;;;;18.63;13.48;;;20.60;99.90;;;;;;5080098;28;20032;-73
2022/06/05 07:35:40;;;;;;;15.32;13.30;;;20.70;99.90;;;;;;5083777;28;20077;-73
2022/06/05 07:38:06;;;;;;;20.45;13.77;;;20.20;99.90;;;;;;5088542;28;20086;-72
2022/06/05 07:40:32;;;;;;;19.38;14.82;;;20.00;99.90;;;;;;5090564;28;20024;-72
2022/06/05 07:42:58;;;;;;;20.23;14.82;;;19.70;99.90;;;;;;5086891;28;20074;-73
2022/06/05 07:45:24;;;;;;;18.73;14.60;;;19.60;99.90;;;;;;5084762;28;20464;-72
2022/06/05 07:47:49;;;;;;;18.95;14.45;;;19.30;99.90;;;;;;5076782;28;20518;-72
2022/06/05 07:50:15;;;;;;;21.30;14.68;;;19.30;99.90;;;;;;5088687;28;20040;-73
2022/06/05 07:55:25;;;;;;;21.23;15.20;;;19.40;99.90;;;;;;5090474;28;20043;-72
2022/06/05 07:57:51;;;;;;;18.50;14.98;;;19.60;99.90;;;;;;5077255;28;20020;-73
2022/06/05 08:00:17;;;;;;;16.30;14.35;;;19.80;99.90;;;;;;5071358;28;20081;-72
2022/06/05 08:02:43;;;;;;;22.25;15.82;;;19.70;99.90;;;;;;5071901;28;20599;-72
2022/06/05 08:05:09;;;;;;;19.95;15.02;;;19.50;99.90;;;;;;5075117;28;20120;-73
2022/06/05 08:07:36;;;;;;;22.95;15.43;;;19.50;99.90;;;;;;5073378;28;20111;-72
2022/06/05 08:10:04;;;;;;;21.33;15.77;;;19.30;99.90;;;;;;5072329;28;20029;-72
2022/06/05 08:12:32;;;;;;;28.20;15.60;;;19.30;99.90;;;;;;5076768;28;20481;-73
2022/06/05 08:15:00;;;;;;;22.20;16.77;;;19.50;99.90;;;;;;5079229;28;20137;-72
2022/06/05 08:17:33;;;;;;;20.63;15.43;;;19.60;99.90;;;;;;5073615;28;20024;-72
2022/06/05 08:19:59;;;;;;;18.00;15.27;;;19.60;99.90;;;;;;5073488;28;20024;-72
2022/06/05 08:22:26;;;;;;;25.48;16.33;;;19.60;99.90;;;;;;5073313;28;20358;-72
2022/06/05 08:24:52;;;;;;;20.08;15.50;;;19.60;99.90;;;;;;5072030;28;20067;-72
2022/06/05 08:27:23;;;;;;;21.27;16.13;;;19.70;99.90;;;;;;5073804;28;20050;-72
2022/06/05 08:29:55;;;;;;;24.30;16.17;;;20.10;99.90;;;;;;5081080;28;20473;-72
2022/06/05 08:32:22;;;;;;;20.73;16.40;;;20.50;99.90;;;;;;5088997;28;20085;-72
2022/06/05 08:34:47;;;;;;;22.38;15.02;;;20.30;99.90;;;;;;5093284;28;20051;-72
2022/06/05 08:43:04;;;;;;;18.90;15.07;;;19.90;99.90;;;;;;5074613;28;20043;-72
2022/06/05 08:45:50;;;;;;;18.20;15.07;;;20.10;99.90;;;;;;5072565;28;20059;-72
2022/06/05 08:48:28;;;;;;;24.90;16.63;;;20.50;99.90;;;;;;5071143;28;20507;-72
2022/06/05 08:50:58;;;;;;;23.38;15.32;;;20.70;99.90;;;;;;5071218;28;20044;-72
2022/06/05 08:53:42;;;;;;;18.00;16.05;;;20.80;99.90;;;;;;5072325;28;20029;-72
2022/06/05 08:56:16;;;;;;;21.27;16.83;;;21.40;99.90;;;;;;5076477;28;20036;-72
2022/06/05 08:58:51;;;;;;;22.08;17.33;;;21.50;99.90;;;;;;5072642;28;20086;-73
2022/06/05 09:01:24;;;;;;;23.75;17.38;;;21.40;99.90;;;;;;5072432;28;20036;-72
2022/06/05 09:04:03;;;;;;;23.60;17.50;;;21.60;99.90;;;;;;5072828;28;20491;-72
2022/06/05 09:06:32;;;;;;;22.20;17.23;;;21.90;99.90;;;;;;5072496;28;20037;-72
2022/06/05 09:09:00;;;;;;;21.02;17.10;;;21.40;99.90;;;;;;5072490;28;20086;-72
2022/06/05 09:11:29;;;;;;;23.08;16.85;;;21.00;99.90;;;;;;5072504;28;20796;-72
2022/06/05 09:14:23;;;;;;;21.50;18.20;;;21.00;99.90;;;;;;5072927;28;20042;-72
2022/06/05 09:16:53;;;;;;;21.30;19.05;;;21.20;99.90;;;;;;5084678;28;20029;-72
2022/06/05 09:19:27;;;;;;;24.65;17.23;;;21.50;99.90;;;;;;5081022;28;20046;-72
2022/06/05 09:22:00;;;;;;;24.98;18.88;;;21.80;99.90;;;;;;5075029;28;20055;-72
2022/06/05 09:24:54;;;;;;;22.38;18.60;;;21.70;99.90;;;;;;5074861;28;20039;-72
2022/06/05 09:27:45;;;;;;;24.98;17.20;;;21.40;99.90;;;;;;5073452;28;20041;-72
2022/06/05 09:30:28;;;;;;;30.77;18.93;;;21.50;99.90;;;;;;5074139;28;20044;-72
2022/06/05 09:32:54;;;;;;;22.45;17.70;;;21.20;99.90;;;;;;5071970;28;20262;-72
2022/06/05 09:35:26;;;;;;;22.88;19.08;;;21.30;99.90;;;;;;5069619;28;20054;-72
2022/06/05 09:37:56;;;;;;;21.70;18.02;;;21.40;99.90;;;;;;5058853;28;20460;-72
2022/06/05 09:40:34;;;;;;;20.58;18.38;;;21.30;99.90;;;;;;5078450;28;20024;-72
2022/06/05 09:43:36;;;;;;;22.67;18.20;;;21.40;99.90;;;;;;5078862;28;20031;-72
2022/06/05 09:46:33;;;;;;;24.70;18.73;;;20.90;99.90;;;;;;5077156;28;20029;-72
2022/06/05 09:49:00;;;;;;;21.83;17.90;;;21.00;99.90;;;;;;5074174;28;20093;-72
2022/06/05 09:51:25;;;;;;;22.20;19.58;;;21.00;99.90;;;;;;5080355;28;20112;-72
2022/06/05 09:54:23;;;;;;;24.95;18.15;;;21.00;99.90;;;;;;5079756;28;20115;-72
2022/06/05 10:00:26;;;;;;;26.55;18.80;;;20.70;99.90;;;;;;5097608;28;20031;-72
2022/06/05 10:02:59;;;;;;;28.15;19.42;;;20.00;99.90;;;;;;5090481;28;20396;-72
2022/06/05 10:05:29;;;;;;;24.98;20.15;;;19.70;99.90;;;;;;5079002;28;20036;-72
2022/06/05 10:08:20;;;;;;;26.85;20.27;;;19.70;99.90;;;;;;5086579;28;20024;-72
2022/06/05 10:10:48;;;;;;;23.60;19.87;;;19.80;99.90;;;;;;5079241;28;20115;-72
2022/06/05 10:13:42;;;;;;;22.92;18.48;;;19.70;99.90;;;;;;5082702;28;20336;-72
2022/06/05 10:16:40;;;;;;;31.20;19.65;;;19.70;99.90;;;;;;5081582;28;20023;-72
2022/06/05 10:19:12;;;;;;;25.80;19.35;;;19.60;99.90;;;;;;5090101;28;20075;-71
2022/06/05 10:21:43;;;;;;;24.25;19.38;;;19.40;99.90;;;;;;5078891;28;20477;-72
2022/06/05 10:24:44;;;;;;;26.92;20.15;;;19.30;99.90;;;;;;5079112;28;20024;-72
2022/06/05 10:27:15;;;;;;;30.98;21.23;;;19.10;99.90;;;;;;5076674;28;20036;-72
2022/06/05 10:29:47;;;;;;;26.83;21.40;;;18.90;99.90;;;;;;5081791;28;20084;-72
2022/06/05 10:32:52;;;;;;;32.15;21.73;;;18.90;99.90;;;;;;5078921;28;20025;-71
2022/06/05 10:35:36;;;;;;;31.52;22.08;;;18.80;99.90;;;;;;5078746;28;20070;-72
2022/06/05 10:38:15;;;;;;;33.10;22.75;;;18.60;99.90;;;;;;5079725;28;20387;-72
2022/06/05 10:40:53;;;;;;;33.63;24.23;;;18.50;99.90;;;;;;5083740;28;20024;-72
2022/06/05 10:43:29;;;;;;;30.45;24.70;;;18.50;99.90;;;;;;5082507;28;20024;-72
2022/06/05 10:46:02;;;;;;;30.73;24.60;;;18.60;99.90;;;;;;5082345;28;20281;-72
2022/06/05 10:48:56;;;;;;;31.35;23.67;;;18.90;99.90;;;;;;5073174;28;20024;-72
2022/06/05 10:51:31;;;;;;;32.55;24.08;;;18.90;99.90;;;;;;5072903;28;20021;-72
2022/06/05 10:54:29;;;;;;;36.95;24.33;;;18.90;99.90;;;;;;5074170;28;20017;-72
2022/06/05 10:57:00;;;;;;;30.42;23.58;;;18.80;99.90;;;;;;5081485;28;20032;-72
2022/06/05 10:59:44;;;;;;;30.35;24.13;;;18.60;99.90;;;;;;5076111;28;20347;-72
2022/06/05 11:02:30;;;;;;;33.40;25.77;;;18.50;99.90;;;;;;5075751;28;20485;-72
2022/06/05 11:05:19;;;;;;;32.65;26.90;;;18.50;99.90;;;;;;5073590;28;20032;-72
2022/06/05 11:08:08;;;;;;;40.15;27.38;;;18.50;99.90;;;;;;5081063;28;20045;-72
2022/06/05 11:13:43;;;;;;;34.45;26.45;;;18.40;99.90;;;;;;5079006;28;20485;-72
2022/06/05 11:16:34;;;;;;;39.55;26.88;;;18.40;99.90;;;;;;5071861;28;20416;-72
2022/06/05 11:19:25;;;;;;;36.17;27.05;;;18.30;99.90;;;;;;5073730;28;20058;-72
2022/06/05 11:21:52;;;;;;;39.20;26.50;;;18.30;99.90;;;;;;5090524;28;20418;-72
2022/06/05 11:24:25;;;;;;;32.63;25.80;;;18.40;99.90;;;;;;5079714;28;20041;-72
2022/06/05 11:27:10;;;;;;;42.08;29.17;;;18.30;99.90;;;;;;5079861;28;20390;-72
2022/06/05 11:29:51;;;;;;;40.00;27.85;;;18.20;99.90;;;;;;5086541;28;20035;-72
2022/06/05 11:32:19;;;;;;;42.45;28.88;;;18.20;99.90;;;;;;5079607;28;20040;-72
2022/06/05 11:34:52;;;;;;;42.78;28.42;;;18.10;99.90;;;;;;5079562;28;20413;-72
2022/06/05 11:37:40;;;;;;;41.72;30.95;;;18.00;99.90;;;;;;5075961;28;20048;-72
2022/06/05 11:40:41;;;;;;;43.00;28.90;;;18.20;99.90;;;;;;5088811;28;20035;-72
2022/06/05 11:43:36;;;;;;;35.92;27.13;;;18.10;99.90;;;;;;5078710;28;20628;-72
2022/06/05 11:46:10;;;;;;;39.20;29.65;;;18.00;99.90;;;;;;5077355;28;20488;-72
2022/06/05 11:49:01;;;;;;;44.63;28.73;;;18.00;99.90;;;;;;5078337;28;20016;-72
2022/06/05 11:51:52;;;;;;;39.90;30.30;;;18.10;99.90;;;;;;5083569;28;20464;-72
2022/06/05 11:54:38;;;;;;;45.38;31.23;;;18.00;99.90;;;;;;5091824;28;20044;-72
2022/06/05 11:57:18;;;;;;;41.38;29.42;;;18.30;99.90;;;;;;5073420;28;20033;-72
2022/06/05 12:00:25;;;;;;;41.78;29.05;;;18.20;99.90;;;;;;5085249;28;20037;-72
2022/06/05 12:02:59;;;;;;;50.25;29.23;;;18.10;99.90;;;;;;5076884;28;20032;-71
2022/06/05 12:05:54;;;;;;;43.85;31.05;;;18.00;99.90;;;;;;5080320;28;20119;-72
2022/06/05 12:08:36;;;;;;;46.55;31.80;;;17.70;99.90;;;;;;5080059;28;20029;-72
2022/06/05 12:11:08;;;;;;;;;;;17.80;99.90;;;;;;5071860;28;20040;-73
2022/06/05 12:13:44;;;;;;;45.63;30.38;;;17.70;99.90;;;;;;5071721;28;20269;-72
2022/06/05 12:16:16;;;;;;;55.42;36.08;;;17.60;99.90;;;;;;5073276;28;20064;-72
2022/06/05 12:19:08;;;;;;;48.75;34.17;;;17.80;99.90;;;;;;5071144;28;20020;-72
2022/06/05 12:21:45;;;;;;;45.63;33.10;;;17.70;99.90;;;;;;5072785;28;20142;-72
2022/06/05 12:24:32;;;;;;;47.67;33.85;;;17.60;99.90;;;;;;5072850;28;20456;-73
2022/06/05 12:27:07;;;;;;;46.00;34.22;;;17.50;99.90;;;;;;5072947;28;20111;-73
2022/06/05 12:29:46;;;;;;;49.58;34.70;;;17.40;99.90;;;;;;5072984;28;20166;-72
2022/06/05 12:32:29;;;;;;;46.03;32.85;;;17.40;99.90;;;;;;5087574;28;20028;-72
2022/06/05 12:35:06;;;;;;;41.83;32.33;;;17.60;99.90;;;;;;5092498;28;20034;-73
2022/06/05 12:37:47;;;;;;;46.65;33.83;;;17.50;99.90;;;;;;5093153;28;20032;-72
2022/06/05 12:40:19;;;;;;;49.55;34.40;;;17.50;99.90;;;;;;5093578;28;20032;-72
2022/06/05 12:43:01;;;;;;;47.83;32.80;;;17.50;99.90;;;;;;5093134;28;20447;-72
2022/06/05 12:45:32;;;;;;;44.13;33.85;;;17.40;99.90;;;;;;5092038;28;20031;-72
2022/06/05 12:48:19;;;;;;;41.70;32.63;;;17.50;99.90;;;;;;5093296;28;20476;-72
2022/06/05 12:50:56;;;;;;;43.72;32.03;;;17.40;99.90;;;;;;5087694;28;20055;-72
2022/06/05 12:53:46;;;;;;;43.70;33.05;;;17.50;99.90;;;;;;5092157;28;20032;-72
2022/06/05 12:56:27;;;;;;;48.85;32.95;;;17.40;99.90;;;;;;5093132;28;20028;-72
2022/06/05 12:59:05;;;;;;;43.50;32.25;;;17.40;99.90;;;;;;5092855;28;20036;-72
2022/06/05 13:01:38;;;;;;;43.72;32.40;;;17.30;99.90;;;;;;5092753;28;20031;-73
2022/06/05 13:04:13;;;;;;;42.85;33.20;;;17.40;99.90;;;;;;5092931;28;20032;-72
2022/06/05 13:07:04;;;;;;;45.17;34.30;;;17.30;99.90;;;;;;5092883;28;20039;-72
2022/06/05 13:09:45;;;;;;;46.25;34.40;;;17.30;99.90;;;;;;5092935;28;20080;-72
2022/06/05 13:12:27;;;;;;;47.00;35.92;;;17.30;99.90;;;;;;5092081;28;20027;-73
2022/06/05 13:15:02;;;;;;;42.15;33.85;;;17.30;99.90;;;;;;5091644;28;20042;-72
2022/06/05 13:17:38;;;;;;;46.28;36.03;;;17.40;99.90;;;;;;5092763;28;20048;-73